Time;durP1;ratioP1;P1;durP2;ratioP2;P2;SDS_P1;SDS_P2;PMS_P1;PMS_P2;Temp;Humidity;BMP_temperature;BMP_pressure;BME280_temperature;BME280_humidity;BME280_pressure;Samples;Min_cycle;Max_cycle;Signal;HPM_P1;HPM_P2
2021/11/24 00:01:42;;;;;;;5.65;4.40;;;8.10;97.80;;;;;;4977475;28;20114;-76
2021/11/24 00:04:08;;;;;;;6.82;4.85;;;8.10;97.70;;;;;;4994849;28;20459;-78
2021/11/24 00:06:34;;;;;;;7.45;4.35;;;8.10;97.90;;;;;;4994219;28;20035;-79
2021/11/24 00:09:00;;;;;;;11.77;5.57;;;8.00;97.80;;;;;;4994838;28;20088;-77
2021/11/24 00:11:27;;;;;;;10.23;5.45;;;8.10;98.20;;;;;;4994514;28;20030;-76
2021/11/24 00:13:55;;;;;;;8.25;5.13;;;8.00;98.30;;;;;;4957732;28;20059;-78
2021/11/24 00:16:23;;;;;;;8.32;5.20;;;8.00;98.60;;;;;;4974924;28;20034;-78
2021/11/24 00:18:49;;;;;;;7.35;4.65;;;8.00;98.70;;;;;;4978390;28;20031;-76
2021/11/24 00:21:15;;;;;;;7.97;5.40;;;7.90;98.50;;;;;;4992789;28;20047;-77
2021/11/24 00:23:40;;;;;;;7.70;5.50;;;7.90;98.40;;;;;;4993757;28;20470;-77
2021/11/24 00:26:06;;;;;;;10.05;5.00;;;7.90;98.00;;;;;;4993834;28;20062;-77
2021/11/24 00:28:33;;;;;;;6.63;4.65;;;8.00;97.70;;;;;;4978075;28;20391;-78
2021/11/24 00:30:58;;;;;;;7.32;4.68;;;8.00;97.80;;;;;;4976569;28;20035;-78
2021/11/24 00:33:26;;;;;;;9.35;5.13;;;8.00;98.10;;;;;;4993660;28;20403;-79
2021/11/24 00:35:52;;;;;;;6.70;4.72;;;8.00;97.90;;;;;;4993463;28;20501;-79
2021/11/24 00:38:18;;;;;;;8.90;5.65;;;7.90;98.40;;;;;;4993565;28;20038;-77
2021/11/24 00:40:43;;;;;;;7.38;5.18;;;7.80;98.60;;;;;;4993686;28;20066;-78
2021/11/24 00:43:09;;;;;;;7.90;5.22;;;7.90;97.80;;;;;;4993804;28;20088;-77
2021/11/24 00:45:36;;;;;;;6.43;4.30;;;7.90;97.80;;;;;;4993969;28;20505;-76
2021/11/24 00:48:02;;;;;;;5.93;4.25;;;7.90;97.70;;;;;;4996515;28;20030;-77
2021/11/24 00:50:28;;;;;;;5.75;4.03;;;7.90;97.20;;;;;;4977252;28;20509;-77
2021/11/24 00:52:54;;;;;;;6.47;4.20;;;7.90;96.50;;;;;;4995806;28;20105;-77
2021/11/24 00:55:20;;;;;;;8.75;3.80;;;7.90;96.40;;;;;;4995253;28;20041;-78
2021/11/24 00:57:46;;;;;;;5.97;4.15;;;8.00;95.90;;;;;;4994702;28;20038;-76
2021/11/24 01:00:16;;;;;;;12.05;4.10;;;8.10;95.40;;;;;;4994689;28;20041;-77
2021/11/24 01:02:43;;;;;;;6.70;3.80;;;8.10;95.50;;;;;;4996160;28;20046;-78
2021/11/24 01:05:09;;;;;;;6.43;3.95;;;8.00;96.10;;;;;;4998212;28;20048;-79
2021/11/24 01:07:35;;;;;;;5.30;4.00;;;8.10;94.90;;;;;;5009203;28;20038;-77
2021/11/24 01:10:01;;;;;;;4.82;3.05;;;8.10;94.90;;;;;;4976781;28;20599;-76
2021/11/24 01:12:26;;;;;;;4.53;3.10;;;8.10;94.30;;;;;;4995696;28;20064;-75
2021/11/24 01:14:52;;;;;;;5.80;3.40;;;8.20;94.40;;;;;;4995391;28;20037;-78
2021/11/24 01:17:18;;;;;;;5.63;3.58;;;8.10;94.20;;;;;;4994091;28;20045;-77
2021/11/24 01:19:44;;;;;;;4.65;3.45;;;8.10;94.20;;;;;;4996579;28;20066;-76
2021/11/24 01:22:10;;;;;;;4.82;3.58;;;8.10;94.90;;;;;;4993931;28;20648;-77
2021/11/24 01:24:35;;;;;;;6.03;3.97;;;8.10;94.90;;;;;;4994407;28;20118;-77
2021/11/24 01:27:01;;;;;;;4.00;3.38;;;8.00;95.10;;;;;;4994469;28;20034;-76
2021/11/24 01:29:27;;;;;;;4.50;3.05;;;8.10;93.70;;;;;;4976188;28;20034;-76
2021/11/24 01:31:53;;;;;;;3.33;2.85;;;8.10;93.00;;;;;;4993739;28;20050;-76
2021/11/24 01:34:18;;;;;;;6.43;3.90;;;8.20;93.00;;;;;;4993849;28;20046;-77
2021/11/24 01:36:44;;;;;;;7.47;3.45;;;8.20;93.70;;;;;;4989022;28;20042;-76
2021/11/24 01:39:10;;;;;;;5.05;3.42;;;8.10;93.90;;;;;;4993257;28;20038;-76
2021/11/24 01:41:36;;;;;;;4.03;3.55;;;8.10;94.00;;;;;;4993398;28;20030;-76
2021/11/24 01:44:02;;;;;;;4.15;3.08;;;8.10;94.40;;;;;;4979505;28;20134;-77
2021/11/24 01:46:29;;;;;;;3.97;3.42;;;8.00;93.50;;;;;;4974313;28;20027;-77
2021/11/24 01:48:55;;;;;;;4.10;3.33;;;8.00;93.40;;;;;;4973868;28;20031;-76
2021/11/24 01:51:21;;;;;;;13.25;4.18;;;8.00;93.10;;;;;;4973755;28;20038;-80
2021/11/24 01:53:47;;;;;;;6.30;4.05;;;8.00;93.80;;;;;;4972794;28;20376;-78
2021/11/24 01:56:13;;;;;;;4.95;3.72;;;8.00;94.10;;;;;;4973625;28;20119;-77
2021/11/24 01:58:39;;;;;;;5.55;3.63;;;7.90;94.00;;;;;;4974203;28;20031;-78
2021/11/24 02:01:05;;;;;;;3.78;2.83;;;7.90;94.40;;;;;;4973537;28;20369;-76
2021/11/24 02:03:31;;;;;;;6.60;3.22;;;8.00;92.20;;;;;;4973172;28;20043;-77
2021/11/24 02:05:57;;;;;;;5.35;3.80;;;8.00;93.10;;;;;;4973771;28;20395;-77
2021/11/24 02:08:23;;;;;;;4.82;3.10;;;8.00;93.00;;;;;;4973964;28;20055;-77
2021/11/24 02:10:49;;;;;;;6.15;3.85;;;8.00;92.80;;;;;;4962425;28;20082;-76
2021/11/24 02:13:15;;;;;;;8.35;3.95;;;8.00;93.20;;;;;;4953988;28;20034;-77
2021/11/24 02:15:41;;;;;;;5.57;3.83;;;7.90;94.00;;;;;;4954396;29;20027;-77
2021/11/24 02:18:08;;;;;;;4.95;3.42;;;7.90;93.50;;;;;;4954269;28;20024;-77
2021/11/24 02:20:33;;;;;;;4.95;3.47;;;7.90;92.70;;;;;;4954296;28;20055;-75
2021/11/24 02:22:59;;;;;;;4.53;3.53;;;7.90;93.00;;;;;;4952848;29;20515;-77
2021/11/24 02:25:25;;;;;;;5.10;3.80;;;7.80;94.10;;;;;;4962946;28;20054;-77
2021/11/24 02:27:50;;;;;;;6.97;3.85;;;7.80;94.10;;;;;;4992762;28;20027;-77
2021/11/24 02:30:16;;;;;;;5.40;4.05;;;7.70;94.70;;;;;;4991674;28;20133;-77
2021/11/24 02:32:42;;;;;;;4.45;3.55;;;7.70;94.20;;;;;;4992882;28;20077;-78
2021/11/24 02:35:08;;;;;;;4.35;3.30;;;7.80;93.10;;;;;;4992561;28;20030;-77
2021/11/24 02:37:34;;;;;;;4.75;3.25;;;7.80;93.30;;;;;;5011617;28;20042;-77
2021/11/24 02:39:59;;;;;;;6.32;3.55;;;7.80;93.20;;;;;;5012132;28;20030;-77
2021/11/24 02:42:25;;;;;;;7.75;3.83;;;7.80;93.50;;;;;;5012409;28;20026;-77
2021/11/24 02:44:52;;;;;;;5.90;3.88;;;7.80;93.80;;;;;;5012004;28;20116;-77
2021/11/24 02:47:21;;;;;;;8.45;4.82;;;7.80;94.30;;;;;;5011985;28;20022;-76
2021/11/24 02:49:53;;;;;;;8.45;4.80;;;7.70;94.90;;;;;;5012065;28;20033;-76
2021/11/24 02:52:20;;;;;;;6.28;4.50;;;7.60;95.00;;;;;;5014270;28;20049;-77
2021/11/24 02:54:51;;;;;;;5.93;4.28;;;7.60;95.40;;;;;;5015629;28;20034;-76
2021/11/24 02:57:18;;;;;;;7.43;4.63;;;7.60;95.10;;;;;;5013567;28;20033;-76
2021/11/24 02:59:43;;;;;;;6.80;4.53;;;7.60;95.00;;;;;;5015618;28;20045;-77
2021/11/24 03:02:09;;;;;;;6.03;4.03;;;7.60;94.50;;;;;;5015074;28;20030;-76
2021/11/24 03:04:35;;;;;;;7.82;4.28;;;7.70;94.10;;;;;;5015118;28;20041;-77
2021/11/24 03:07:02;;;;;;;6.72;4.03;;;7.70;94.20;;;;;;4997775;28;20088;-76
2021/11/24 03:09:28;;;;;;;7.35;4.18;;;7.70;94.50;;;;;;5015533;28;20037;-76
2021/11/24 03:11:55;;;;;;;6.03;4.22;;;7.70;94.10;;;;;;5015524;28;20041;-77
2021/11/24 03:14:21;;;;;;;5.72;4.03;;;7.60;94.90;;;;;;5015395;28;20029;-77
2021/11/24 03:16:48;;;;;;;5.35;4.20;;;7.60;94.40;;;;;;5015209;28;20026;-76
2021/11/24 03:19:14;;;;;;;6.10;4.30;;;7.60;94.60;;;;;;4997579;28;20038;-77
2021/11/24 03:21:39;;;;;;;5.75;4.07;;;7.60;94.70;;;;;;5015081;28;20057;-77
2021/11/24 03:24:05;;;;;;;6.88;4.10;;;7.50;95.00;;;;;;5014796;28;20431;-77
2021/11/24 03:26:32;;;;;;;4.53;3.78;;;7.50;95.10;;;;;;5001191;28;20045;-77
2021/11/24 03:28:57;;;;;;;4.53;3.70;;;7.50;94.90;;;;;;4995534;28;20045;-76
2021/11/24 03:31:23;;;;;;;6.50;4.65;;;7.50;94.90;;;;;;4995609;28;20035;-76
2021/11/24 03:33:49;;;;;;;7.05;4.57;;;7.50;94.60;;;;;;4977843;28;20061;-76
2021/11/24 03:36:15;;;;;;;4.75;3.55;;;7.50;94.90;;;;;;4977983;28;20072;-77
2021/11/24 03:38:41;;;;;;;7.05;3.53;;;7.50;94.90;;;;;;4995219;28;20498;-76
2021/11/24 03:41:07;;;;;;;4.90;3.85;;;7.50;94.70;;;;;;4995215;28;20038;-77
2021/11/24 03:43:33;;;;;;;5.05;3.83;;;7.50;94.50;;;;;;4995066;28;20042;-77
2021/11/24 03:45:58;;;;;;;5.15;4.35;;;7.50;94.20;;;;;;4995112;28;20598;-77
2021/11/24 03:48:24;;;;;;;5.68;4.28;;;7.50;94.70;;;;;;4995223;28;20029;-77
2021/11/24 03:50:50;;;;;;;5.80;3.88;;;7.50;94.70;;;;;;4994908;28;20485;-77
2021/11/24 03:53:16;;;;;;;6.82;4.40;;;7.50;94.70;;;;;;4977183;28;20426;-76
2021/11/24 03:55:42;;;;;;;10.20;4.20;;;7.40;94.60;;;;;;4978422;28;20125;-76
2021/11/24 03:58:07;;;;;;;7.80;4.72;;;7.40;94.70;;;;;;4994748;28;20098;-78
2021/11/24 04:00:34;;;;;;;6.63;4.43;;;7.40;94.70;;;;;;4995001;28;20116;-77
2021/11/24 04:03:00;;;;;;;10.88;4.85;;;7.40;94.70;;;;;;4994729;28;20050;-76
2021/11/24 04:05:27;;;;;;;6.93;4.40;;;7.40;94.50;;;;;;4994909;28;20430;-77
2021/11/24 04:07:53;;;;;;;5.03;3.60;;;7.40;94.70;;;;;;4976748;28;20524;-77
2021/11/24 04:10:19;;;;;;;7.45;4.75;;;7.40;94.80;;;;;;4994728;28;20105;-77
2021/11/24 04:12:45;;;;;;;5.68;4.22;;;7.40;94.50;;;;;;4994323;28;20082;-76
2021/11/24 04:15:16;;;;;;;5.22;4.00;;;7.40;94.70;;;;;;4994256;28;20022;-76
2021/11/24 04:17:43;;;;;;;6.13;4.25;;;7.40;94.90;;;;;;4994129;28;20102;-77
2021/11/24 04:20:13;;;;;;;7.70;4.05;;;7.40;94.80;;;;;;4976962;28;20065;-77
2021/11/24 04:22:39;;;;;;;5.70;4.05;;;7.30;94.90;;;;;;4994945;28;20031;-76
2021/11/24 04:25:06;;;;;;;5.85;3.78;;;7.30;95.10;;;;;;4993870;28;20035;-77
2021/11/24 04:27:32;;;;;;;8.07;4.18;;;7.20;95.00;;;;;;4994314;28;20030;-77
2021/11/24 04:29:57;;;;;;;5.70;3.83;;;7.20;95.00;;;;;;4994235;28;20041;-77
2021/11/24 04:32:24;;;;;;;5.53;3.85;;;7.20;94.70;;;;;;4994210;28;20070;-77
2021/11/24 04:34:50;;;;;;;6.07;4.38;;;7.20;94.50;;;;;;4994141;28;20033;-76
2021/11/24 04:37:16;;;;;;;6.00;4.07;;;7.30;94.40;;;;;;4994019;28;20557;-77
2021/11/24 04:39:42;;;;;;;6.38;4.13;;;7.30;94.20;;;;;;4976665;28;20073;-76
2021/11/24 04:42:08;;;;;;;6.45;4.13;;;7.30;94.20;;;;;;4994135;28;20495;-78
2021/11/24 04:44:34;;;;;;;4.85;3.78;;;7.40;94.30;;;;;;4993870;28;20050;-77
2021/11/24 04:47:00;;;;;;;9.27;5.07;;;7.30;94.60;;;;;;4993688;28;20030;-77
2021/11/24 04:49:25;;;;;;;5.43;4.00;;;7.30;94.60;;;;;;4993793;28;20035;-76
2021/11/24 04:51:51;;;;;;;6.03;4.55;;;7.30;94.30;;;;;;5005216;28;20085;-76
2021/11/24 04:54:17;;;;;;;6.22;3.65;;;7.30;94.10;;;;;;4995656;28;20030;-77
2021/11/24 04:56:43;;;;;;;5.57;3.90;;;7.30;93.70;;;;;;4993699;28;20038;-77
2021/11/24 04:59:08;;;;;;;5.63;3.67;;;7.30;93.60;;;;;;5013300;28;20057;-77
2021/11/24 05:01:34;;;;;;;4.85;3.50;;;7.40;93.40;;;;;;5013045;28;20053;-75
2021/11/24 05:04:00;;;;;;;5.00;3.55;;;7.30;93.10;;;;;;5013200;28;20403;-75
2021/11/24 05:06:26;;;;;;;5.13;4.03;;;7.40;93.20;;;;;;5012748;28;20030;-75
2021/11/24 05:08:51;;;;;;;6.93;3.92;;;7.40;93.10;;;;;;5012754;28;20033;-76
2021/11/24 05:11:19;;;;;;;3.78;3.33;;;7.40;93.70;;;;;;5013258;28;20114;-76
2021/11/24 05:13:51;;;;;;;6.40;3.35;;;7.50;92.20;;;;;;5012576;28;20034;-76
2021/11/24 05:16:18;;;;;;;6.45;4.10;;;7.60;91.70;;;;;;5013006;28;20084;-76
2021/11/24 05:18:48;;;;;;;3.50;2.83;;;7.60;91.80;;;;;;5013346;28;20030;-76
2021/11/24 05:23:56;;;;;;;4.30;3.05;;;7.70;91.20;;;;;;5005055;28;20053;-76
2021/11/24 05:26:22;;;;;;;5.05;3.45;;;7.70;90.50;;;;;;4995010;28;20130;-76
2021/11/24 05:28:47;;;;;;;4.35;3.38;;;7.80;91.00;;;;;;5012802;28;20551;-76
2021/11/24 05:31:14;;;;;;;4.53;2.80;;;7.80;90.70;;;;;;5012944;28;20030;-75
2021/11/24 05:33:40;;;;;;;5.78;3.53;;;7.80;90.20;;;;;;5012750;28;20034;-76
2021/11/24 05:36:06;;;;;;;3.28;2.80;;;7.80;90.30;;;;;;5012678;28;20049;-77
2021/11/24 05:38:32;;;;;;;3.40;3.00;;;7.70;90.40;;;;;;4998594;28;20101;-76
2021/11/24 05:40:58;;;;;;;4.25;3.08;;;7.70;90.50;;;;;;4993122;28;20058;-76
2021/11/24 05:43:27;;;;;;;7.80;2.90;;;7.70;90.60;;;;;;4993099;28;20045;-75
2021/11/24 05:48:20;;;;;;;4.15;2.92;;;7.60;90.10;;;;;;5012495;28;20044;-76
2021/11/24 05:50:48;;;;;;;5.38;3.35;;;7.70;89.20;;;;;;5001986;28;20114;-75
2021/11/24 05:53:16;;;;;;;6.20;2.90;;;7.70;90.30;;;;;;4973309;28;20031;-77
2021/11/24 05:55:43;;;;;;;4.60;3.15;;;7.60;90.40;;;;;;4973474;28;20059;-76
2021/11/24 05:58:10;;;;;;;5.20;3.35;;;7.60;90.40;;;;;;4973385;28;20042;-76
2021/11/24 06:00:36;;;;;;;6.75;3.15;;;7.60;90.70;;;;;;4973728;28;20078;-77
2021/11/24 06:03:02;;;;;;;4.90;2.97;;;7.50;91.00;;;;;;4973709;28;20514;-75
2021/11/24 06:05:28;;;;;;;6.93;3.35;;;7.40;91.10;;;;;;4974190;28;20047;-76
2021/11/24 06:07:54;;;;;;;7.38;3.53;;;7.40;91.00;;;;;;4973440;28;20379;-75
2021/11/24 06:10:19;;;;;;;8.95;3.80;;;7.40;91.40;;;;;;4973780;28;20042;-75
2021/11/24 06:12:45;;;;;;;4.57;3.40;;;7.40;91.60;;;;;;4973711;28;20027;-75
2021/11/24 06:15:15;;;;;;;5.22;3.67;;;7.40;91.60;;;;;;4997910;28;20041;-75
2021/11/24 06:17:46;;;;;;;5.90;3.88;;;7.40;91.80;;;;;;5012734;28;20025;-76
2021/11/24 06:20:13;;;;;;;6.57;3.88;;;7.40;92.10;;;;;;5012549;28;20482;-75
2021/11/24 06:22:40;;;;;;;5.03;3.85;;;7.30;91.90;;;;;;5012691;28;20041;-75
2021/11/24 06:25:07;;;;;;;5.68;3.95;;;7.30;92.10;;;;;;5012740;28;20096;-76
2021/11/24 06:27:33;;;;;;;7.32;3.72;;;7.20;92.50;;;;;;4998469;28;20041;-76
2021/11/24 06:29:59;;;;;;;6.22;3.90;;;7.30;92.60;;;;;;5012727;28;20042;-76
2021/11/24 06:32:25;;;;;;;10.65;3.30;;;7.20;92.00;;;;;;5004837;28;20026;-76
2021/11/24 06:34:51;;;;;;;4.35;3.10;;;7.30;91.70;;;;;;4996170;28;20479;-75
2021/11/24 06:37:17;;;;;;;5.72;3.40;;;7.30;91.50;;;;;;4995367;28;20117;-76
2021/11/24 06:39:43;;;;;;;6.40;3.25;;;7.40;91.50;;;;;;4996096;28;20544;-76
2021/11/24 06:42:09;;;;;;;7.22;3.58;;;7.40;91.70;;;;;;4977680;28;20053;-76
2021/11/24 06:44:35;;;;;;;7.97;3.50;;;7.40;91.90;;;;;;5003015;28;20045;-76
2021/11/24 06:47:00;;;;;;;17.88;4.00;;;7.50;91.70;;;;;;4992364;28;20041;-77
2021/11/24 06:49:26;;;;;;;5.45;3.28;;;7.80;92.00;;;;;;4992594;28;20049;-76
2021/11/24 06:51:52;;;;;;;5.00;3.42;;;8.20;91.20;;;;;;4975011;28;20026;-77
2021/11/24 06:54:18;;;;;;;5.25;3.55;;;8.50;91.20;;;;;;4992977;28;20104;-77
2021/11/24 06:56:46;;;;;;;5.00;3.28;;;8.90;90.80;;;;;;4996960;28;20433;-77
2021/11/24 06:59:12;;;;;;;9.32;3.40;;;9.30;90.30;;;;;;4994828;28;20505;-77
2021/11/24 07:01:38;;;;;;;6.28;3.50;;;9.60;90.40;;;;;;4995702;28;20039;-77
2021/11/24 07:04:04;;;;;;;6.50;3.72;;;9.90;90.30;;;;;;4995558;28;20049;-77
2021/11/24 07:06:30;;;;;;;4.45;3.33;;;10.30;90.50;;;;;;4994265;28;20030;-76
2021/11/24 07:08:56;;;;;;;4.70;3.17;;;10.80;90.10;;;;;;4995173;28;20034;-76
2021/11/24 07:11:23;;;;;;;6.15;3.38;;;11.10;89.70;;;;;;4995495;28;20038;-77
2021/11/24 07:13:49;;;;;;;10.65;3.22;;;11.10;88.30;;;;;;4995010;28;20057;-76
2021/11/24 07:16:15;;;;;;;4.35;3.30;;;11.10;88.50;;;;;;5013883;28;20443;-77
2021/11/24 07:18:41;;;;;;;5.05;3.47;;;10.90;88.00;;;;;;5013728;28;20136;-76
2021/11/24 07:21:06;;;;;;;8.20;3.85;;;11.20;89.40;;;;;;5014999;28;20030;-76
2021/11/24 07:23:32;;;;;;;8.98;4.00;;;11.30;88.70;;;;;;5015108;28;20037;-76
2021/11/24 07:25:58;;;;;;;5.45;3.63;;;11.80;88.20;;;;;;4997570;28;20037;-76
2021/11/24 07:28:23;;;;;;;9.23;3.38;;;12.40;86.60;;;;;;5014794;28;20034;-77
2021/11/24 07:30:49;;;;;;;4.13;2.70;;;12.60;85.50;;;;;;5014600;28;20378;-76
2021/11/24 07:33:15;;;;;;;7.63;2.78;;;12.50;82.70;;;;;;4997825;28;20030;-76
2021/11/24 07:35:41;;;;;;;4.18;2.60;;;12.80;83.80;;;;;;5014894;28;20117;-77
2021/11/24 07:38:06;;;;;;;3.75;2.45;;;13.20;83.60;;;;;;5013816;28;20037;-76
2021/11/24 07:40:32;;;;;;;3.88;2.33;;;14.00;82.50;;;;;;5014905;28;20490;-77
2021/11/24 07:42:58;;;;;;;5.03;2.97;;;14.50;79.90;;;;;;5014717;28;20040;-76
2021/11/24 07:45:24;;;;;;;5.93;2.55;;;14.90;79.30;;;;;;4983576;28;20046;-76
2021/11/24 07:47:49;;;;;;;3.33;2.47;;;15.00;77.90;;;;;;4995254;28;20030;-76
2021/11/24 07:50:15;;;;;;;2.80;2.08;;;15.90;75.50;;;;;;4995496;28;20034;-76
2021/11/24 07:52:41;;;;;;;4.00;2.38;;;17.10;72.60;;;;;;4995424;28;20026;-76
2021/11/24 07:55:07;;;;;;;2.97;2.10;;;17.00;70.90;;;;;;4996187;28;20050;-77
2021/11/24 07:57:33;;;;;;;6.80;2.22;;;16.70;70.70;;;;;;4994704;28;20505;-77
2021/11/24 07:59:59;;;;;;;4.05;2.33;;;16.80;69.50;;;;;;4994857;28;20109;-76
2021/11/24 08:02:24;;;;;;;16.17;2.47;;;16.50;66.90;;;;;;4995323;28;20045;-76
2021/11/24 08:04:51;;;;;;;5.97;2.38;;;16.40;68.50;;;;;;4994898;28;20042;-77
2021/11/24 08:07:17;;;;;;;2.88;2.03;;;16.40;69.40;;;;;;4994811;28;20116;-76
2021/11/24 08:09:43;;;;;;;3.17;2.50;;;16.40;65.70;;;;;;4978740;28;20499;-76
2021/11/24 08:12:09;;;;;;;10.02;2.75;;;15.80;67.40;;;;;;5014219;28;20030;-76
2021/11/24 08:14:35;;;;;;;4.85;2.83;;;16.00;67.50;;;;;;5014295;28;20029;-77
2021/11/24 08:17:00;;;;;;;6.28;2.20;;;15.70;67.60;;;;;;5006420;28;20026;-76
2021/11/24 08:19:26;;;;;;;5.18;2.55;;;15.70;67.40;;;;;;4976762;28;20061;-77
2021/11/24 08:21:52;;;;;;;6.95;2.63;;;15.70;66.80;;;;;;4995312;28;20053;-77
2021/11/24 08:24:18;;;;;;;3.15;2.28;;;15.90;67.40;;;;;;4994448;28;20487;-76
2021/11/24 08:26:43;;;;;;;3.50;2.38;;;17.00;64.60;;;;;;4993739;28;20035;-77
2021/11/24 08:29:10;;;;;;;2.90;2.30;;;16.80;65.20;;;;;;4976468;28;20084;-76
2021/11/24 08:31:39;;;;;;;2.50;2.08;;;17.60;64.10;;;;;;4994027;28;20038;-76
2021/11/24 08:34:06;;;;;;;2.55;2.28;;;18.70;62.60;;;;;;4993737;28;20475;-77
2021/11/24 08:36:32;;;;;;;5.57;2.53;;;18.70;62.60;;;;;;4993610;28;20062;-77
2021/11/24 08:38:58;;;;;;;3.88;2.70;;;18.90;62.70;;;;;;4989755;28;20034;-76
2021/11/24 08:41:24;;;;;;;4.35;2.42;;;19.10;62.10;;;;;;4995583;28;20117;-75
2021/11/24 08:43:50;;;;;;;4.32;3.15;;;18.00;62.30;;;;;;4975275;28;20038;-75
2021/11/24 08:46:16;;;;;;;3.95;2.42;;;17.80;64.50;;;;;;4993878;28;20479;-75
2021/11/24 08:48:41;;;;;;;3.28;2.38;;;18.40;63.10;;;;;;4993461;28;20034;-76
2021/11/24 08:51:07;;;;;;;19.00;2.25;;;18.60;61.60;;;;;;4993165;28;20042;-76
2021/11/24 08:53:33;;;;;;;3.22;2.30;;;19.40;60.80;;;;;;4993022;28;20030;-76
2021/11/24 08:55:59;;;;;;;4.90;2.47;;;19.40;59.60;;;;;;5010482;28;20038;-73
2021/11/24 08:58:25;;;;;;;4.88;2.97;;;19.30;60.50;;;;;;4993410;28;20426;-73
2021/11/24 09:00:51;;;;;;;5.13;2.83;;;17.90;61.40;;;;;;4993795;28;20037;-73
2021/11/24 09:03:17;;;;;;;3.85;2.33;;;17.90;62.40;;;;;;4993549;28;20490;-74
2021/11/24 09:05:42;;;;;;;3.65;2.70;;;17.80;62.20;;;;;;4993170;28;20450;-74
2021/11/24 09:08:08;;;;;;;3.38;2.35;;;18.50;61.30;;;;;;4993273;28;20034;-76
2021/11/24 09:10:35;;;;;;;2.72;2.28;;;18.90;61.90;;;;;;5001216;28;20049;-74
2021/11/24 09:13:02;;;;;;;3.50;2.38;;;18.40;59.00;;;;;;4997610;28;20038;-74
2021/11/24 09:15:28;;;;;;;3.13;2.10;;;18.70;59.60;;;;;;4993049;28;20023;-75
2021/11/24 09:17:54;;;;;;;4.28;2.38;;;18.40;59.70;;;;;;4992577;28;20061;-76
2021/11/24 09:20:22;;;;;;;3.50;2.38;;;18.10;59.70;;;;;;4993207;28;20041;-78
2021/11/24 09:22:49;;;;;;;6.07;2.40;;;17.70;61.20;;;;;;4992724;28;20109;-75
2021/11/24 09:25:18;;;;;;;3.97;2.55;;;18.00;60.80;;;;;;4975518;28;20050;-75
2021/11/24 09:27:57;;;;;;;3.92;2.50;;;17.70;61.30;;;;;;4993217;28;20387;-75
2021/11/24 09:30:23;;;;;;;7.30;2.30;;;17.50;62.20;;;;;;4993553;28;20030;-76
2021/11/24 09:32:49;;;;;;;6.57;1.80;;;17.10;60.80;;;;;;4993272;28;20022;-75
2021/11/24 09:35:15;;;;;;;1.73;1.60;;;16.80;60.00;;;;;;4993166;28;20046;-75
2021/11/24 09:37:42;;;;;;;3.80;2.10;;;16.00;61.30;;;;;;4993194;28;20045;-74
2021/11/24 09:40:09;;;;;;;2.90;1.95;;;15.40;61.20;;;;;;5012742;28;20034;-75
2021/11/24 09:42:37;;;;;;;5.85;2.58;;;14.90;62.30;;;;;;5004091;28;20027;-75
2021/11/24 09:45:13;;;;;;;5.78;2.38;;;14.60;62.20;;;;;;4992750;28;20053;-75
2021/11/24 09:47:39;;;;;;;6.40;2.30;;;14.00;63.20;;;;;;4985526;28;20030;-75
2021/11/24 09:50:07;;;;;;;7.38;2.53;;;13.60;65.00;;;;;;4992457;28;20081;-76
2021/11/24 09:52:36;;;;;;;4.70;2.67;;;13.50;66.20;;;;;;4991555;28;20069;-75
2021/11/24 09:55:04;;;;;;;4.10;2.75;;;13.50;66.30;;;;;;4993158;28;20033;-74
2021/11/24 09:57:31;;;;;;;3.63;2.60;;;13.40;65.70;;;;;;4993649;28;20383;-75
2021/11/24 09:59:56;;;;;;;9.43;2.60;;;13.80;66.70;;;;;;4992775;28;20054;-76
2021/11/24 10:02:23;;;;;;;4.57;3.08;;;13.80;65.90;;;;;;4996719;28;20069;-75
2021/11/24 10:04:49;;;;;;;6.30;3.10;;;13.80;66.60;;;;;;4979143;28;20122;-75
2021/11/24 10:07:18;;;;;;;5.13;2.78;;;13.60;67.00;;;;;;4996056;28;20026;-75
2021/11/24 10:09:44;;;;;;;5.30;2.78;;;13.80;67.20;;;;;;4996436;28;20395;-75
2021/11/24 10:12:11;;;;;;;4.15;2.70;;;13.80;66.40;;;;;;4995971;28;20468;-74
2021/11/24 10:14:38;;;;;;;3.50;2.50;;;13.90;66.90;;;;;;4996005;28;20030;-74
2021/11/24 10:17:16;;;;;;;5.28;3.05;;;13.70;67.60;;;;;;4978725;28;20022;-76
2021/11/24 10:20:03;;;;;;;5.68;3.25;;;13.90;68.30;;;;;;4996620;28;20442;-76
2021/11/24 10:22:29;;;;;;;4.18;3.08;;;14.90;67.40;;;;;;4996219;28;20081;-75
2021/11/24 10:25:09;;;;;;;6.78;3.50;;;15.30;66.60;;;;;;4996060;28;20038;-75
2021/11/24 10:27:35;;;;;;;3.53;2.83;;;15.50;67.40;;;;;;4997097;28;20050;-75
2021/11/24 10:30:02;;;;;;;4.18;3.10;;;16.10;66.40;;;;;;4996383;28;20088;-74
2021/11/24 10:32:28;;;;;;;4.75;3.17;;;16.10;65.50;;;;;;4995569;28;20117;-74
2021/11/24 10:34:56;;;;;;;3.53;2.72;;;16.50;65.80;;;;;;4995554;28;20110;-75
2021/11/24 10:37:22;;;;;;;5.25;2.47;;;16.90;64.80;;;;;;4995676;28;20411;-75
2021/11/24 10:40:07;;;;;;;4.80;3.35;;;17.20;63.10;;;;;;4995977;28;20026;-75
2021/11/24 10:42:34;;;;;;;3.78;2.90;;;17.20;63.90;;;;;;4995626;28;20041;-75
2021/11/24 10:45:05;;;;;;;4.90;3.20;;;17.40;65.00;;;;;;4995395;28;20568;-75
2021/11/24 10:47:32;;;;;;;3.33;2.30;;;17.60;64.10;;;;;;4995633;28;20167;-75
2021/11/24 10:50:00;;;;;;;4.13;3.08;;;18.20;63.80;;;;;;4995592;28;20042;-75
2021/11/24 10:52:37;;;;;;;4.13;3.40;;;18.20;63.50;;;;;;4978115;28;20030;-75
2021/11/24 10:55:13;;;;;;;3.92;2.95;;;18.20;63.50;;;;;;4996555;28;20038;-76
2021/11/24 10:57:42;;;;;;;4.82;3.78;;;17.50;64.40;;;;;;4995391;28;20030;-76
2021/11/24 11:00:16;;;;;;;5.85;3.38;;;17.20;65.50;;;;;;4995455;28;20113;-79
2021/11/24 11:02:48;;;;;;;6.40;3.40;;;16.80;66.30;;;;;;4995746;28;20077;-77
2021/11/24 11:05:25;;;;;;;4.20;2.85;;;17.10;65.00;;;;;;4993699;28;20066;-76
2021/11/24 11:07:53;;;;;;;6.15;3.55;;;17.30;65.50;;;;;;4994926;28;20031;-76
2021/11/24 11:10:32;;;;;;;5.65;3.10;;;17.20;64.90;;;;;;4993907;28;20050;-77
2021/11/24 11:13:05;;;;;;;7.38;4.75;;;17.30;65.30;;;;;;4993763;28;20054;-76
2021/11/24 11:15:32;;;;;;;8.35;4.00;;;17.40;65.30;;;;;;4995179;28;20426;-76
2021/11/24 11:18:08;;;;;;;6.50;3.65;;;16.90;65.40;;;;;;4995204;28;20030;-75
2021/11/24 11:20:39;;;;;;;7.90;4.72;;;16.30;66.40;;;;;;4995376;28;20045;-75
2021/11/24 11:23:14;;;;;;;6.78;4.10;;;15.70;67.70;;;;;;4995410;28;20038;-76
2021/11/24 11:26:11;;;;;;;6.57;4.57;;;15.90;68.40;;;;;;5013460;28;20034;-75
2021/11/24 11:28:43;;;;;;;5.13;4.05;;;15.70;69.20;;;;;;4986080;28;20069;-76
2021/11/24 11:31:13;;;;;;;9.00;4.28;;;16.20;68.50;;;;;;4995573;28;20030;-75
2021/11/24 11:33:47;;;;;;;6.78;4.45;;;16.10;68.30;;;;;;4995112;28;20022;-76
2021/11/24 11:36:14;;;;;;;7.63;4.32;;;16.10;68.60;;;;;;4994468;28;20041;-75
2021/11/24 11:38:50;;;;;;;8.73;4.30;;;15.80;68.80;;;;;;4994529;28;20026;-76
2021/11/24 11:41:21;;;;;;;8.73;5.25;;;15.50;68.60;;;;;;4994649;28;20041;-75
2021/11/24 11:43:51;;;;;;;7.00;4.47;;;14.60;69.60;;;;;;4994670;28;20507;-76
2021/11/24 11:46:23;;;;;;;7.05;4.05;;;14.30;71.00;;;;;;4994575;28;20034;-75
2021/11/24 11:48:53;;;;;;;8.40;3.78;;;14.20;71.10;;;;;;4994541;28;20015;-76
2021/11/24 11:51:35;;;;;;;4.65;3.17;;;14.10;71.60;;;;;;4994537;28;20505;-76
2021/11/24 11:54:01;;;;;;;5.37;3.50;;;13.70;72.40;;;;;;4994630;28;20026;-75
2021/11/24 11:56:29;;;;;;;7.82;3.33;;;13.40;72.40;;;;;;4994518;28;20062;-74
2021/11/24 11:59:02;;;;;;;6.93;3.65;;;13.20;73.30;;;;;;4994357;28;20014;-75
2021/11/24 12:01:43;;;;;;;6.90;3.55;;;13.20;73.60;;;;;;4994425;28;20371;-75
2021/11/24 12:04:21;;;;;;;5.13;2.97;;;13.20;74.00;;;;;;4994290;28;20030;-75
2021/11/24 12:06:52;;;;;;;4.47;3.53;;;13.20;73.90;;;;;;4976529;28;20045;-75
2021/11/24 12:09:28;;;;;;;4.72;3.10;;;13.10;74.20;;;;;;4993764;28;20553;-75
2021/11/24 12:12:09;;;;;;;5.07;3.35;;;13.10;74.00;;;;;;4994242;28;20442;-75
2021/11/24 12:15:07;;;;;;;5.05;3.28;;;13.10;74.70;;;;;;4994256;28;20046;-75
2021/11/24 12:17:36;;;;;;;8.93;3.40;;;13.20;74.30;;;;;;4976781;28;20114;-76
2021/11/24 12:20:10;;;;;;;4.45;3.15;;;13.20;74.40;;;;;;4993922;28;20034;-75
2021/11/24 12:27:54;;;;;;;5.50;3.15;;;12.90;75.20;;;;;;4994496;28;20036;-74
2021/11/24 12:33:15;;;;;;;11.45;6.57;;;13.00;75.90;;;;;;4993083;28;20073;-75
2021/11/24 12:35:46;;;;;;;8.75;3.80;;;13.20;74.10;;;;;;5005724;28;20042;-75
2021/11/24 12:38:13;;;;;;;9.93;3.63;;;13.10;74.00;;;;;;4998175;28;20177;-76
2021/11/24 12:40:41;;;;;;;10.10;3.22;;;13.10;74.10;;;;;;4994535;28;20284;-75
2021/11/24 12:43:16;;;;;;;8.77;3.47;;;13.00;74.80;;;;;;4977121;28;20041;-75
2021/11/24 12:46:07;;;;;;;5.22;3.20;;;13.00;75.30;;;;;;4994326;28;20393;-75
2021/11/24 12:48:44;;;;;;;9.20;3.40;;;13.00;75.20;;;;;;4984231;28;20081;-75
2021/11/24 12:51:22;;;;;;;6.05;2.92;;;12.90;75.30;;;;;;4993913;28;20033;-75
2021/11/24 12:53:54;;;;;;;6.93;3.58;;;12.90;75.80;;;;;;4993934;28;20046;-75
2021/11/24 12:56:22;;;;;;;4.40;3.20;;;12.80;75.80;;;;;;4994702;28;20125;-75
2021/11/24 12:58:48;;;;;;;4.45;2.85;;;12.70;75.90;;;;;;4993819;28;20488;-76
2021/11/24 13:01:25;;;;;;;5.63;3.40;;;12.60;76.90;;;;;;4994063;28;20112;-75
2021/11/24 13:04:22;;;;;;;4.68;3.20;;;12.70;76.20;;;;;;4995093;28;20037;-75
2021/11/24 13:06:53;;;;;;;5.40;3.22;;;12.70;75.80;;;;;;4992749;28;20074;-75
2021/11/24 13:09:23;;;;;;;4.27;3.07;;;12.60;75.80;;;;;;4993843;28;20022;-75